Greenville Spartanburg International Airport
KGSP : now visible

Airfield :











YOU CAN JOIN US ON...

 
LOGIN :

Register | Disclaimer

   EN    FR    IT 

 









Legend :    VFR   Marginal VFR   IFR   Intensive IFR   Very Intensive IFR
Visi :
Ceiling :
>= 8 km
>= 3000ft
5 to 8 km
1000 to 3000 ft
1500m to 5 km
500 to 1000 ft
800 to 1500m
200 to 500 ft
< 800m
< 200 ft
Symbols :   Thunderstorms  Fog  Heavy snow  Heavy precipitations  Wind > 20 kt






- Airport Elevation : 964 ft
- IATA code : GSP


KGSP - Greenville Spartanburg International

CURRENT METAR :
  • 141053Z 00000KT 10SM CLR 10/07 A3008 RMK AO2 SLP180 T01000072

EXPIRED METARs :
  • 140953Z 03005KT 10SM CLR 11/07 A3007 RMK AO2 SLP173 T01110072
  • 140853Z AUTO 00000KT 10SM CLR 11/08 A3007 RMK AO2 SLP177 T01060078 58008

TAF KGSP
Valid from the 14 at 12:00 until the 15 at 12:00 UTC


141125Z 1412/1512 VRB03KT P6SM FEW200
FM141600 21006KT P6SM FEW200
FM141900 22012G20KT P6SM SCT100 SCT250
PROB30 1501/1503 4SM -SHRA BR OVC025
FM150300 23008KT P6SM VCSH BKN050
FM150600 22006KT P6SM VCSH BKN035
FM151000 25004KT P6SM BKN035
KZTL FIR / North America



MET'MAP, your aeronautical weather chart ! - Copyright ORBIFLY December 2007 - Disclaimer

ORBIFLY MET'MAP TEAM :

Programming & Development : Alexandra Zaïnal
Concept & original design : Baudouin d'Aumeries
Assistance for programming : Marc-Olivier Méhu
Technical & hardware support : Manuel Goepfert

Contact : metmap@orbifly.com




SOURCES & CREDITS :

   NOAA       Earth
Advisory